EW7034 Weather Reports


Display with metric or nautical units.
time (UTC)temp
F
wind
direction
speed
MPH
gust
MPH
rain 1hr
in
rain 24hr
in
rain mn
in
humidity
%
barometer
mb
20180924153034 57 222 0.0 0.0 0.00 0.00 0.00 53 1038.7
20180924151530 56 221 0.0 0.0 0.00 0.00 0.00 55 1038.8
20180924150024 55 221 0.0 2.0 0.00 0.00 0.00 52 1038.8
20180924144542 56 223 0.0 0.0 0.00 0.00 0.00 54 1038.8
20180924143022 57 223 0.0 1.0 0.00 0.00 0.00 54 1039.2
20180924141537 56 223 0.0 0.0 0.00 0.00 0.00 60 1039.3
20180924140040 57 223 0.0 1.0 0.00 0.00 0.00 55 1039.6
20180924134525 57 223 0.0 1.0 0.00 0.00 0.00 55 1039.7
20180924133021 56 227 0.0 1.0 0.00 0.00 0.00 58 1039.7
20180924131531 56 227 0.0 2.0 0.00 0.00 0.00 56 1039.8
20180924130026 57 227 0.0 1.0 0.00 0.00 0.00 53 1039.8
20180924124516 58 227 0.0 1.0 0.00 0.00 0.00 50 1039.7
20180924123025 59 191 0.0 1.0 0.00 0.00 0.00 54 1039.8
20180924121519 59 191 0.0 2.0 0.00 0.00 0.00 50 1040.0
20180924120034 58 218 0.0 3.0 0.00 0.00 0.00 52 1040.0
20180924114514 58 211 0.0 2.0 0.00 0.00 0.00 56 1039.9
20180924113013 58 210 0.0 2.0 0.00 0.00 0.00 51 1039.9
20180924111506 57 174 0.0 1.0 0.00 0.00 0.00 56 1040.0
20180924110005 58 215 0.0 2.0 0.00 0.00 0.00 55 1040.1
20180924104508 57 200 0.0 2.0 0.00 0.00 0.00 56 1040.2
20180924103005 58 96 0.0 1.0 0.00 0.00 0.00 55 1040.4
20180924101701 57 98 0.0 2.0 0.00 0.00 0.00 59 1040.5
20180924100157 57 106 0.0 1.0 0.00 0.00 0.00 61 1040.4
20180924094557 56 107 0.0 2.0 0.00 0.00 0.00 68 1040.1
20180924093147 54 106 0.0 0.0 0.00 0.00 0.00 73 1040.0
20180924091553 53 106 0.0 2.0 0.00 0.00 0.00 71 1039.8
20180924090055 54 77 0.0 2.0 0.00 0.00 0.00 68 1039.7
20180924084554 52 76 0.0 1.0 0.00 0.00 0.00 76 1039.5
20180924083039 51 76 0.0 0.0 0.00 0.00 0.00 79 1039.6
20180924081532 47 76 0.0 1.0 0.00 0.00 0.00 85 1039.5
20180924080056 46 76 0.0 0.0 0.00 0.00 0.00 87 1039.0
20180924074544 45 76 0.0 1.0 0.00 0.00 0.00 89 1039.0
20180924073041 42 76 0.0 2.0 0.00 0.00 0.00 96 1039.0
20180924071522 39 76 0.0 0.0 0.00 0.00 0.00 94 1038.8
20180924070044 38 76 0.0 0.0 0.00 0.00 0.00 95 1038.9
20180924064553 38 76 0.0 0.0 0.00 0.00 0.00 95 1038.8
20180924063027 37 76 0.0 0.0 0.00 0.00 0.00 95 1038.7
20180924061530 36 76 0.0 0.0 0.00 0.00 0.00 94 1038.4
20180924060011 36 76 0.0 0.0 0.00 0.00 0.00 94 1038.1
20180924054507 36 76 0.0 0.0 0.00 0.00 0.00 93 1038.0
20180924053015 37 76 0.0 0.0 0.00 0.00 0.00 94 1038.0
20180924051508 37 76 0.0 0.0 0.00 0.00 0.00 93 1038.0
20180924050003 37 76 0.0 0.0 0.00 0.00 0.00 93 1038.1
20180924044637 37 76 0.0 0.0 0.00 0.00 0.00 93 1038.0
20180924043235 37 76 0.0 0.0 0.00 0.00 0.00 93 1038.0
20180924041606 38 76 0.0 0.0 0.00 0.00 0.00 92 1037.8
20180924040128 38 76 0.0 0.0 0.00 0.00 0.00 92 1037.8
20180924034552 38 76 0.0 0.0 0.00 0.00 0.00 93 1037.7
20180924033120 39 76 0.0 1.0 0.00 0.00 0.00 91 1037.5
20180924031553 39 76 0.0 2.0 0.00 0.00 0.00 91 1037.5
20180924024556 41 14 0.0 1.0 0.00 0.00 0.00 90 1037.4
20180924023112 40 15 0.0 3.0 0.00 0.00 0.00 90 1037.5
20180924021555 40 17 0.0 0.0 0.00 0.00 0.00 89 1037.6
20180924020054 41 17 0.0 0.0 0.00 0.00 0.00 89 1037.4
20180924014554 41 17 0.0 1.0 0.00 0.00 0.00 89 1037.4
20180924013128 42 17 0.0 0.0 0.00 0.00 0.00 87 1037.5
20180924011556 42 17 0.0 2.0 0.00 0.00 0.00 87 1037.4
20180924010050 42 338 0.0 1.0 0.00 0.00 0.00 87 1037.2
20180924004552 42 339 0.0 2.0 0.00 0.00 0.00 88 1037.0
20180924003054 42 337 0.0 0.0 0.00 0.00 0.00 87 1036.8
20180924001534 43 337 0.0 2.0 0.00 0.00 0.00 86 1036.6
20180924000039 42 336 0.0 3.0 0.00 0.00 0.00 87 1036.2
20180923234545 42 327 0.0 1.0 0.00 0.00 0.00 90 1036.1
20180923233029 41 327 0.0 1.0 0.00 0.00 0.00 90 1036.2
20180923231540 42 327 0.0 0.0 0.00 0.00 0.00 87 1036.1
20180923230046 43 327 0.0 0.0 0.00 0.00 0.00 86 1035.8
20180923224530 43 327 0.0 2.0 0.00 0.00 0.00 86 1035.5
20180923223027 43 327 0.0 1.0 0.00 0.00 0.00 86 1035.2
20180923221520 43 327 0.0 0.0 0.00 0.00 0.00 87 1035.3
20180923220120 43 327 0.0 0.0 0.00 0.00 0.00 87 1035.0
20180923214554 43 327 0.0 0.0 0.00 0.00 0.00 87 1034.6
20180923213012 43 327 0.0 0.0 0.00 0.00 0.00 88 1034.4
20180923211511 42 327 0.0 0.0 0.00 0.00 0.00 89 1034.3
20180923210013 42 327 0.0 0.0 0.00 0.00 0.00 90 1034.0
20180923204506 41 327 0.0 0.0 0.00 0.00 0.00 89 1034.0
20180923203007 42 327 0.0 0.0 0.00 0.00 0.00 88 1033.7
20180923201509 43 327 0.0 0.0 0.00 0.00 0.00 87 1033.5
20180923200122 43 327 0.0 0.0 0.00 0.00 0.00 85 1033.4
20180923194611 44 327 0.0 1.0 0.00 0.00 0.00 84 1032.9
20180923193054 45 327 0.0 0.0 0.00 0.00 0.00 82 1032.4
20180923191621 46 327 0.0 0.0 0.00 0.00 0.00 82 1032.1
20180923190056 46 327 0.0 3.0 0.00 0.00 0.00 81 1031.8
20180923184550 47 11 0.0 3.0 0.00 0.00 0.00 80 1031.6
20180923183119 47 9 0.0 2.0 0.00 0.00 0.00 80 1031.4
20180923181612 47 42 0.0 1.0 0.00 0.00 0.00 81 1031.0
20180923180057 48 50 0.0 1.0 0.00 0.00 0.00 79 1030.7
20180923174546 48 50 0.0 1.0 0.00 0.00 0.00 78 1030.5
20180923173037 48 50 0.0 1.0 0.00 0.00 0.00 77 1030.1
20180923171553 49 46 0.0 1.0 0.00 0.00 0.00 77 1029.9
20180923170041 49 46 0.0 2.0 0.00 0.00 0.00 77 1029.7
20180923164531 50 340 0.0 4.0 0.00 0.00 0.00 76 1029.4
20180923163124 51 35 0.0 4.0 0.00 0.00 0.00 76 1029.2
20180923161553 52 296 0.0 4.0 0.00 0.00 0.00 70 1029.0
20180923160027 52 291 0.0 2.0 0.00 0.00 0.00 71 1028.7
20180923154553 52 291 0.0 4.0 0.00 0.00 0.00 71 1028.6